• Join FlightAware (Why Join?)
  • Login
  • US Flag 
12:13AM EST


 

Airport Tracker/Info


-or-


 

Live Flight TrackerFlight Track Log ✈ N373LD ✈ 07-Apr-2014 ✈ KGCK - KMLS

Flight Track Log - Related Links

Times and Time Zones

All times are in EDT time to prevent confusion due to time zone crossing. See the N373LD flight status page for this flight to view local times or setup timezone preferences in your user account.

Time Position Orientation Groundspeed Altitude Reporting Facility
EDT Latitude Longitude Course Direction KTS MPH feet Rate Location/Type
12:43PM 37.9608 -100.7214 North 93 107 4,400  Level Kansas City Center
12:44PM 37.9972 -100.7164 North 108 124 5,200 480 Climbing Kansas City Center
12:45PM 38.0417 -100.7292 347° North 150 173 5,400 840 Climbing Kansas City Center
12:46PM 38.0819 -100.7606 328° Northwest 154 177 7,000 1,380 Climbing Kansas City Center
12:47PM 37.9501 -100.7334 343° North  Level FlightAware Approximate
12:47PM 38.1144 -100.7789 336° Northwest 143 165 8,300  Level Kansas City Center
12:48PM 38.1531 -100.7986 338° Northwest 138 159 9,800 1,320 Climbing Kansas City Center
12:49PM 38.1858 -100.8161 337° Northwest 138 159 11,100 1,320 Climbing Kansas City Center
12:50PM 38.2236 -100.8367 337° Northwest 136 157 12,600 1,320 Climbing Kansas City Center
12:51PM 38.2561 -100.8539 337° Northwest 135 155 13,900 1,140 Climbing Kansas City Center
12:52PM 38.2903 -100.8725 337° Northwest 135 155 15,000 1,140 Climbing Kansas City Center
12:53PM 38.3317 -100.8947 337° Northwest 140 161 16,300 1,200 Climbing Kansas City Center
12:54PM 38.3689 -100.9153 337° Northwest 148 170 17,600 1,200 Climbing Kansas City Center
12:55PM 38.3931 -100.9286 337° Northwest 147 169 18,300 1,200 Climbing Denver Center
12:56PM 38.4378 -100.9525 337° Northwest 153 176 19,600 1,140 Climbing Denver Center
12:57PM 38.4783 -100.9739 338° Northwest 162 186 20,700 1,140 Climbing Denver Center
12:58PM 38.5264 -100.9994 337° Northwest 165 190 22,000 1,140 Climbing Denver Center
12:59PM 38.5678 -101.0217 337° Northwest 168 193 23,100 1,020 Climbing Denver Center
01:00PM 38.6189 -101.0494 337° Northwest 171 197 24,200 960 Climbing Denver Center
01:01PM 38.6625 -101.0744 336° Northwest 177 204 25,200 840 Climbing Denver Center
01:02PM 38.7178 -101.1028 338° Northwest 187 215 26,000 360 Climbing Denver Center
01:03PM 38.7703 -101.1319 337° Northwest 207 238 26,000  Level Denver Center
01:04PM 38.8375 -101.1686 337° Northwest 229 264 26,000  Level Denver Center
01:05PM 38.8967 -101.2006 337° Northwest 235 270 26,000  Level Denver Center
01:06PM 38.9633 -101.2383 336° Northwest 236 272 26,000  Level Denver Center
01:07PM 39.0233 -101.2689 338° Northwest 240 276 26,000  Level Denver Center
01:09PM 39.0917 -101.3083 336° Northwest 241 277 26,000  Level Denver Center
01:10PM 39.1500 -101.3392 338° Northwest 241 277 26,000  Level Denver Center
01:11PM 39.2186 -101.3769 337° Northwest 241 277 26,000  Level Denver Center
01:12PM 39.2794 -101.4117 336° Northwest 242 278 26,000  Level Denver Center
01:13PM 39.3494 -101.4497 337° Northwest 244 281 26,000  Level Denver Center
01:14PM 39.4083 -101.4825 337° Northwest 243 280 26,000  Level Denver Center
01:15PM 39.4678 -101.5156 337° Northwest 242 278 26,000  Level Denver Center
01:16PM 39.5264 -101.5489 336° Northwest 242 278 26,000  Level Denver Center
01:18PM 39.6642 -101.6261 333° Northwest 241 277 26,000  Level Denver Center
01:19PM 39.7225 -101.6586 337° Northwest 241 277 26,000  Level Denver Center
01:20PM 39.7903 -101.6947 338° Northwest 240 276 26,000  Level Denver Center
01:21PM 39.8481 -101.7286 336° Northwest 239 275 26,000  Level Denver Center
01:22PM 39.9156 -101.7656 337° Northwest 238 274 26,000  Level Denver Center
01:23PM 39.9736 -101.7981 337° Northwest 238 274 26,000  Level Denver Center
01:24PM 40.0406 -101.8369 336° Northwest 238 274 26,000  Level Denver Center
01:25PM 40.0983 -101.8692 337° Northwest 237 273 26,000  Level Denver Center
01:26PM 40.1656 -101.9081 336° Northwest 237 273 26,000  Level Denver Center
01:27PM 40.2217 -101.9375 338° Northwest 229 264 26,000  Level Denver Center
01:28PM 40.2789 -101.9717 336° Northwest 231 266 26,000  Level Denver Center
01:29PM 40.3442 -102.0086 337° Northwest 231 266 26,000  Level Denver Center
01:30PM 40.4017 -102.0417 336° Northwest 232 267 26,000  Level Denver Center
01:31PM 40.4672 -102.0794 336° Northwest 232 267 26,000  Level Denver Center
01:33PM 40.5878 -102.1486 331° Northwest 228 262 26,000  Level Denver Center
01:34PM 40.6422 -102.1811 336° Northwest 227 261 26,000  Level Denver Center
01:35PM 40.7078 -102.2183 337° Northwest 227 261 26,000  Level Denver Center
01:36PM 40.7617 -102.2497 336° Northwest 226 260 26,000  Level Denver Center
01:37PM 40.8256 -102.2869 336° Northwest 226 260 26,000  Level Denver Center
01:39PM 40.8794 -102.3194 335° Northwest 225 259 26,000  Level Denver Center
01:40PM 40.9417 -102.3539 337° Northwest 219 252 26,000  Level Denver Center
01:41PM 40.9942 -102.3856 336° Northwest 219 252 26,000  Level Denver Center
01:42PM 41.0564 -102.4214 337° Northwest 218 251 26,000  Level Denver Center
01:43PM 41.1100 -102.4522 337° Northwest 218 251 26,000  Level Denver Center
01:45PM 41.2214 -102.5189 336° Northwest 214 246 26,000  Level Denver Center
01:46PM 41.2700 -102.5469 337° Northwest 204 235 26,000  Level Denver Center
01:47PM 41.3275 -102.5819 335° Northwest 201 231 26,000  Level Denver Center
01:48PM 41.3769 -102.6086 338° Northwest 200 230 26,000  Level Denver Center
01:49PM 41.4275 -102.6403 335° Northwest 201 231 26,000  Level Denver Center
01:50PM 41.4844 -102.6733 336° Northwest 200 230 26,000  Level Denver Center
01:51PM 41.5231 -102.6961 336° Northwest 195 224 26,000  Level Denver Center
01:52PM 41.5842 -102.7322 336° Northwest 192 221 26,000  Level Denver Center
01:53PM 41.6281 -102.7581 336° Northwest 184 212 26,000  Level Denver Center
01:54PM 41.6853 -102.7925 336° Northwest 179 206 26,000  Level Denver Center
01:55PM 41.7331 -102.8203 337° Northwest 172 198 26,000  Level Denver Center
01:57PM 41.8133 -102.8675 336° Northwest 170 196 26,000  Level Salt Lake Center
01:58PM 41.8522 -102.8908 336° Northwest 166 191 26,000  Level Salt Lake Center
01:59PM 41.8911 -102.9153 335° Northwest 162 186 26,000  Level Denver Center
02:01PM 41.9831 -102.9717 335° Northwest 165 190 26,000  Level Denver Center
02:03PM 42.0267 -102.9978 336° Northwest 158 182 26,000  Level Denver Center
02:04PM 42.0647 -103.0214 335° Northwest 156 180 26,000  Level Denver Center
02:05PM 42.1094 -103.0478 336° Northwest 156 180 26,000  Level Denver Center
02:07PM 42.1933 -103.0983 336° Northwest 159 183 26,000  Level Denver Center
02:08PM 42.2322 -103.1219 336° Northwest 161 185 26,000  Level Denver Center
02:09PM 42.2761 -103.1503 334° Northwest 160 184 26,000  Level Denver Center
02:10PM 42.3083 -103.1697 336° Northwest 160 184 26,000  Level Denver Center
02:11PM 42.3606 -103.2006 336° Northwest 160 184 26,000  Level Denver Center
02:12PM 42.3981 -103.2239 335° Northwest 159 183 26,000  Level Denver Center
02:13PM 42.4444 -103.2528 335° Northwest 162 186 26,000  Level Denver Center
02:14PM 42.4828 -103.2747 337° Northwest 161 185 26,000  Level Denver Center
02:15PM 42.5194 -103.2997 333° Northwest 154 177 26,000  Level Denver Center
02:16PM 42.5639 -103.3250 337° Northwest 154 177 26,000  Level Denver Center
02:17PM 42.6014 -103.3483 335° Northwest 154 177 26,000  Level Denver Center
02:18PM 42.6436 -103.3756 335° Northwest 153 176 26,000  Level Denver Center
02:19PM 42.6811 -103.3975 337° Northwest 153 176 26,000  Level Denver Center
02:21PM 42.7631 -103.4464 336° Northwest 155 178 26,000  Level Salt Lake Center
02:22PM 42.7994 -103.4697 335° Northwest 155 178 26,000  Level Salt Lake Center
02:23PM 42.8439 -103.4978 335° Northwest 156 180 26,000  Level Denver Center
02:24PM 42.8883 -103.5267 335° Northwest 157 181 26,000  Level Denver Center
02:25PM 42.9264 -103.5503 336° Northwest 157 181 26,000  Level Denver Center
02:26PM 42.9703 -103.5775 336° Northwest 157 181 26,000  Level Denver Center
02:27PM 43.0086 -103.6014 336° Northwest 157 181 26,000  Level Denver Center
02:28PM 43.0528 -103.6281 336° Northwest 156 180 26,000  Level Denver Center
02:29PM 43.0903 -103.6519 335° Northwest 156 180 26,000  Level Denver Center
02:30PM 43.1281 -103.6772 334° Northwest 156 180 26,000  Level Denver Center
02:31PM 43.1714 -103.7053 335° Northwest 156 180 26,000  Level Denver Center
02:32PM 43.2083 -103.7286 335° Northwest 156 180 26,000  Level Denver Center
02:33PM 43.2522 -103.7556 336° Northwest 155 178 26,000  Level Denver Center
02:35PM 43.2908 -103.7806 335° Northwest 156 180 26,000  Level Denver Center
02:36PM 43.3344 -103.8083 335° Northwest 156 180 26,000 -300 Level Denver Center
02:37PM 43.3739 -103.8319 336° Northwest 157 181 25,500 -540 Descending Denver Center
02:38PM 43.4214 -103.8625 335° Northwest 163 188 25,000 -480 Descending Denver Center
02:39PM 43.4628 -103.8886 335° Northwest 166 191 24,500 -480 Descending Denver Center
02:40PM 43.5192 -103.9256 335° Northwest 172 198 24,000 -300 Descending Denver Center
02:41PM 43.5592 -103.9508 335° Northwest 172 198 24,000  Level Denver Center
02:42PM 43.6061 -103.9817 335° Northwest 170 196 24,000  Level Denver Center
02:43PM 43.6469 -104.0067 336° Northwest 170 196 24,000  Level Denver Center
02:44PM 43.6939 -104.0381 334° Northwest 169 194 24,000  Level Denver Center
02:45PM 43.7333 -104.0617 337° Northwest 168 193 24,000  Level Denver Center
02:46PM 43.7803 -104.0919 335° Northwest 167 192 24,000  Level Denver Center
02:47PM 43.8200 -104.1172 335° Northwest 167 192 24,000  Level Denver Center
02:48PM 43.8600 -104.1444 334° Northwest 166 191 24,000  Level Denver Center
02:49PM 43.9047 -104.1736 335° Northwest 166 191 24,000  Level Denver Center
02:50PM 43.9428 -104.1964 337° Northwest 161 185 24,000  Level Denver Center
02:51PM 43.9872 -104.2239 336° Northwest 159 183 24,000  Level Denver Center
02:52PM 44.0244 -104.2483 335° Northwest 159 183 24,000  Level Denver Center
02:53PM 44.0558 -104.2692 335° Northwest 159 183 24,000  Level Denver Center
02:54PM 44.1075 -104.3019 336° Northwest 159 183 24,000  Level Denver Center
02:56PM 44.1775 -104.3453 336° Northwest 159 183 24,000  Level Salt Lake Center
02:57PM 44.2200 -104.3742 334° Northwest 157 181 24,000  Level Salt Lake Center
02:58PM 44.2589 -104.3992 335° Northwest 156 180 24,000  Level Salt Lake Center
03:00PM 44.3144 -104.4378 334° Northwest 157 181 24,000  Level Denver Center
03:01PM 44.3597 -104.4681 334° Northwest 158 182 24,000  Level Denver Center
03:02PM 44.4067 -104.4986 335° Northwest 164 189 24,000  Level Denver Center
03:03PM 44.4406 -104.5203 335° Northwest 165 190 24,000  Level Denver Center
03:04PM 44.4933 -104.5556 335° Northwest 165 190 24,000  Level Denver Center
03:05PM 44.5322 -104.5803 336° Northwest 164 189 24,000  Level Denver Center
03:06PM 44.5772 -104.6103 335° Northwest 162 186 24,000  Level Denver Center
03:07PM 44.6158 -104.6378 333° Northwest 162 186 24,000  Level Denver Center
03:08PM 44.6550 -104.6639 335° Northwest 162 186 24,000  Level Denver Center
03:09PM 44.7011 -104.6939 335° Northwest 162 186 24,000  Level Denver Center
03:10PM 44.7331 -104.7144 335° Northwest 162 186 24,000  Level Denver Center
03:11PM 44.7864 -104.7492 335° Northwest 162 186 24,000  Level Denver Center
03:12PM 44.8264 -104.7772 334° Northwest 162 186 24,000  Level Denver Center
03:13PM 44.8672 -104.8044 335° Northwest 162 186 24,000  Level Denver Center
03:14PM 44.8847 -104.8136 340° North 162 186 24,000  Level Salt Lake Center
03:15PM 44.9331 -104.8475 334° Northwest 162 186 24,000  Level Salt Lake Center
03:16PM 44.9728 -104.8744 334° Northwest 162 186 24,000  Level Salt Lake Center
03:16PM 44.9883 -104.8858 333° Northwest 162 186 24,000  Level Denver Center
03:17PM 45.0133 -104.9014 336° Northwest 162 186 24,000  Level Salt Lake Center
03:18PM 45.0772 -104.9461 334° Northwest 162 186 24,000  Level Denver Center
03:19PM 45.0942 -104.9561 337° Northwest 162 186 24,000  Level Salt Lake Center
03:20PM 45.1336 -104.9836 334° Northwest 161 185 24,000  Level Salt Lake Center
03:21PM 45.1803 -105.0147 335° Northwest 159 183 24,000  Level Salt Lake Center
03:22PM 45.2206 -105.0422 334° Northwest 158 182 24,000  Level Salt Lake Center
03:23PM 45.2608 -105.0708 333° Northwest 160 184 24,000  Level Salt Lake Center
03:24PM 45.3006 -105.0978 334° Northwest 160 184 24,000  Level Salt Lake Center
03:25PM 45.3406 -105.1236 336° Northwest 160 184 24,000  Level Salt Lake Center
03:26PM 45.3814 -105.1533 333° Northwest 160 184 24,000  Level Salt Lake Center
03:27PM 45.4217 -105.1797 335° Northwest 160 184 24,000  Level Salt Lake Center
03:28PM 45.4692 -105.2119 335° Northwest 160 184 24,000  Level Salt Lake Center
03:29PM 45.5097 -105.2408 333° Northwest 160 184 24,000  Level Salt Lake Center
03:30PM 45.5497 -105.2683 334° Northwest 161 185 24,000  Level Salt Lake Center
03:31PM 45.5908 -105.2964 334° Northwest 161 185 24,000  Level Salt Lake Center
03:32PM 45.6300 -105.3239 334° Northwest 161 185 24,000  Level Salt Lake Center
03:33PM 45.6708 -105.3525 334° Northwest 161 185 24,000  Level Salt Lake Center
03:34PM 45.7108 -105.3792 335° Northwest 161 185 24,000  Level Salt Lake Center
03:35PM 45.7567 -105.4111 334° Northwest 155 178 24,000  Level Salt Lake Center
03:36PM 45.7972 -105.4383 335° Northwest 157 181 24,000  Level Salt Lake Center
03:37PM 45.8361 -105.4661 334° Northwest 157 181 24,000  Level Salt Lake Center
03:38PM 45.8764 -105.4939 334° Northwest 157 181 24,000  Level Salt Lake Center
03:39PM 45.9158 -105.5208 335° Northwest 157 181 24,000 -60 Level Salt Lake Center
03:40PM 45.9550 -105.5481 334° Northwest 157 181 23,900 -720 Descending Salt Lake Center
03:41PM 45.9953 -105.5756 335° Northwest 157 181 22,600 -1,680 Descending Salt Lake Center
03:42PM 46.0411 -105.6092 333° Northwest 157 181 20,500 -1,860 Descending Salt Lake Center
03:43PM 46.0819 -105.6372 335° Northwest 157 181 18,800 -1,500 Descending Salt Lake Center
03:44PM 46.1289 -105.6703 334° Northwest 173 199 17,400 -1,620 Descending Salt Lake Center
03:45PM 46.1753 -105.7025 334° Northwest 178 205 15,500 -2,040 Descending Salt Lake Center
03:47PM 46.2217 -105.7344 335° Northwest 180 207 13,300 -2,220 Descending Salt Lake Center
03:48PM 46.2694 -105.7711 332° Northwest 182 209 11,000 -2,280 Descending Salt Lake Center